createdAt,value
2022-09-01T00:00:50.350Z,2.30
2022-09-01T00:03:24.856Z,2.10
2022-09-01T00:05:57.137Z,2.20
2022-09-01T00:08:25.209Z,2.00
2022-09-01T00:10:52.383Z,2.10
2022-09-01T00:13:19.546Z,2.10
2022-09-01T00:15:46.802Z,2.00
2022-09-01T00:18:15.729Z,2.30
2022-09-01T00:20:42.929Z,2.13
2022-09-01T00:23:10.056Z,2.40
2022-09-01T00:25:37.185Z,2.20
2022-09-01T00:28:05.085Z,2.20
2022-09-01T00:30:32.280Z,2.20
2022-09-01T00:32:59.500Z,2.37
2022-09-01T00:35:26.750Z,2.40
2022-09-01T00:37:53.884Z,2.40
2022-09-01T00:40:21.166Z,2.43
2022-09-01T00:42:49.288Z,2.30
2022-09-01T00:45:16.590Z,2.10
2022-09-01T00:47:44.437Z,2.47
2022-09-01T00:50:13.277Z,2.20
2022-09-01T00:52:45.889Z,2.33
2022-09-01T00:55:18.225Z,2.00
2022-09-01T00:57:46.117Z,2.10
2022-09-01T01:00:15.756Z,2.27
2022-09-01T01:02:45.017Z,2.20
2022-09-01T01:05:15.088Z,2.33
2022-09-01T01:07:47.247Z,2.60
2022-09-01T01:10:15.939Z,2.30
2022-09-01T01:12:43.955Z,2.40
2022-09-01T01:15:14.524Z,2.40
2022-09-01T01:17:41.700Z,2.60
2022-09-01T01:20:28.277Z,2.63
2022-09-01T01:23:09.014Z,2.30
2022-09-01T01:25:41.318Z,2.50
2022-09-01T01:28:10.632Z,2.10
2022-09-01T01:30:39.700Z,2.53
2022-09-01T01:33:07.626Z,2.70
2022-09-01T01:35:35.581Z,2.40
2022-09-01T01:38:03.635Z,2.57
2022-09-01T01:40:31.261Z,2.43
2022-09-01T01:42:59.124Z,2.57
2022-09-01T01:45:26.434Z,2.27
2022-09-01T01:47:54.118Z,2.60
2022-09-01T01:50:23.637Z,2.70
2022-09-01T01:52:58.128Z,2.53
2022-09-01T01:55:27.944Z,2.40
2022-09-01T01:57:56.279Z,2.50
2022-09-01T02:00:27.076Z,2.27
2022-09-01T02:02:57.856Z,2.60
2022-09-01T02:05:26.669Z,2.23
2022-09-01T02:07:59.958Z,2.80
2022-09-01T02:10:29.559Z,2.60
2022-09-01T02:12:58.076Z,2.70
2022-09-01T02:15:25.524Z,2.63
2022-09-01T02:17:53.313Z,2.70
2022-09-01T02:20:22.646Z,2.63
2022-09-01T02:22:51.975Z,2.90
2022-09-01T02:25:20.620Z,2.60
2022-09-01T02:27:53.329Z,2.97
2022-09-01T02:30:20.487Z,2.70
2022-09-01T02:32:47.646Z,2.87
2022-09-01T02:35:16.649Z,2.50
2022-09-01T02:37:43.768Z,2.70
2022-09-01T02:40:11.089Z,2.67
2022-09-01T02:42:41.648Z,2.73
2022-09-01T02:45:12.037Z,2.60
2022-09-01T02:47:42.064Z,2.50
2022-09-01T02:50:13.835Z,2.63
2022-09-01T02:52:41.852Z,3.03
2022-09-01T02:55:10.250Z,3.10
2022-09-01T02:57:37.369Z,2.63
2022-09-01T03:00:20.597Z,2.87
2022-09-01T03:02:49.310Z,2.97
2022-09-01T03:05:16.474Z,3.10
2022-09-01T03:07:43.695Z,3.00
2022-09-01T03:10:10.845Z,3.00
2022-09-01T03:12:37.997Z,3.10
2022-09-01T03:15:06.462Z,2.97
2022-09-01T03:17:36.177Z,2.97
2022-09-01T03:20:03.532Z,2.93
2022-09-01T03:22:30.845Z,3.10
2022-09-01T03:24:58.459Z,3.00
2022-09-01T03:27:25.634Z,3.20
2022-09-01T03:29:52.769Z,3.03
2022-09-01T03:32:19.926Z,2.80
2022-09-01T03:34:47.151Z,2.70
2022-09-01T03:37:14.347Z,3.13
2022-09-01T03:39:41.498Z,3.20
2022-09-01T03:42:11.520Z,3.00
2022-09-01T03:44:40.897Z,3.10
2022-09-01T03:47:11.040Z,3.50
2022-09-01T03:49:39.370Z,3.03
2022-09-01T03:52:08.970Z,3.20
2022-09-01T03:54:36.269Z,3.27
2022-09-01T03:57:05.972Z,3.57
2022-09-01T03:59:33.810Z,3.40
2022-09-01T04:02:02.814Z,3.10
2022-09-01T04:04:32.960Z,3.20
2022-09-01T04:07:00.326Z,3.27
2022-09-01T04:09:27.583Z,4.10
2022-09-01T04:11:55.050Z,3.43
2022-09-01T04:14:22.266Z,4.00
2022-09-01T04:17:08.155Z,3.73
2022-09-01T04:19:38.609Z,3.70
2022-09-01T04:22:08.071Z,3.50
2022-09-01T04:24:35.430Z,3.40
2022-09-01T04:27:03.108Z,3.60
2022-09-01T04:29:31.429Z,3.63
2022-09-01T04:32:02.335Z,3.73
2022-09-01T04:34:37.100Z,3.33
2022-09-01T04:37:08.146Z,3.73
2022-09-01T04:39:36.541Z,3.60
2022-09-01T04:42:09.043Z,3.70
2022-09-01T04:44:36.752Z,3.50
2022-09-01T04:47:03.920Z,3.87
2022-09-01T04:49:33.784Z,3.30
2022-09-01T04:52:01.043Z,4.03
2022-09-01T04:54:28.416Z,3.53
2022-09-01T04:56:55.563Z,3.47
2022-09-01T04:59:24.349Z,3.83
2022-09-01T05:01:54.274Z,3.33
2022-09-01T05:04:27.543Z,3.40
2022-09-01T05:06:59.747Z,3.33
2022-09-01T05:09:28.912Z,3.70
2022-09-01T05:11:57.662Z,3.03
2022-09-01T05:14:25.658Z,2.80
2022-09-01T05:16:57.105Z,2.90
2022-09-01T05:19:24.789Z,2.50
2022-09-01T05:21:54.695Z,2.43
2022-09-01T05:24:21.889Z,3.07
2022-09-01T05:26:50.779Z,2.80
2022-09-01T05:29:19.051Z,2.37
2022-09-01T05:31:47.253Z,2.57
2022-09-01T05:34:23.067Z,2.13
2022-09-01T05:36:50.674Z,2.43
2022-09-01T05:39:18.089Z,2.25
2022-09-01T05:41:45.925Z,2.67
2022-09-01T05:44:15.610Z,2.10
2022-09-01T05:46:44.510Z,2.25
2022-09-01T05:49:16.830Z,2.20
2022-09-01T05:51:50.726Z,2.10
2022-09-01T05:54:23.247Z,2.10
2022-09-01T05:56:50.667Z,2.38
2022-09-01T05:59:23.712Z,2.00
2022-09-01T06:01:53.344Z,2.20
2022-09-01T06:04:20.809Z,1.95
2022-09-01T06:07:05.635Z,2.03
2022-09-01T06:09:34.889Z,1.80
2022-09-01T06:12:02.785Z,2.10
2022-09-01T06:14:29.954Z,2.42
2022-09-01T06:16:57.098Z,2.00
2022-09-01T06:19:24.273Z,2.40
2022-09-01T06:21:51.426Z,2.10
2022-09-01T06:24:18.553Z,2.20
2022-09-01T06:26:46.794Z,2.30
2022-09-01T06:29:15.516Z,2.15
2022-09-01T06:31:45.822Z,2.83
2022-09-01T06:34:17.699Z,2.20
2022-09-01T06:36:45.817Z,2.50
2022-09-01T06:39:22.372Z,2.17
2022-09-01T06:41:52.947Z,2.15
2022-09-01T06:44:23.050Z,2.92
2022-09-01T06:46:50.906Z,2.80
2022-09-01T06:49:18.179Z,2.45
2022-09-01T06:51:51.731Z,2.70
2022-09-01T06:54:21.142Z,2.50
2022-09-01T06:59:35.766Z,2.28
2022-09-01T07:04:51.330Z,2.30
2022-09-01T07:13:11.588Z,2.10
2022-09-01T07:18:31.178Z,2.20
2022-09-01T07:21:36.330Z,2.58
2022-09-01T07:24:07.888Z,2.35
2022-09-01T07:26:35.338Z,2.33
2022-09-01T07:29:04.271Z,2.30
2022-09-01T07:34:42.195Z,2.30
2022-09-01T07:38:47.442Z,2.45
2022-09-01T07:39:57.367Z,2.33
2022-09-01T07:39:57.604Z,2.13
2022-09-01T07:45:47.725Z,2.30
2022-09-01T07:53:53.417Z,2.10
2022-09-01T07:56:22.109Z,2.72
2022-09-01T07:58:50.133Z,2.10
2022-09-01T08:01:19.440Z,2.50
2022-09-01T08:03:47.365Z,2.42
2022-09-01T08:06:19.427Z,2.25
2022-09-01T08:08:47.243Z,2.20
2022-09-01T08:11:58.597Z,2.20
2022-09-01T08:14:19.960Z,2.28
2022-09-01T08:16:54.536Z,2.08
2022-09-01T08:19:23.069Z,2.30
2022-09-01T08:21:50.239Z,2.40
2022-09-01T08:24:17.426Z,2.00
2022-09-01T08:26:44.534Z,2.00
2022-09-01T08:29:11.715Z,2.00
2022-09-01T08:31:38.910Z,2.03
2022-09-01T08:34:06.146Z,2.00
2022-09-01T08:36:33.625Z,2.30
2022-09-01T08:39:01.289Z,1.98
2022-09-01T08:42:00.578Z,2.03
2022-09-01T08:44:42.312Z,1.73
2022-09-01T08:47:12.931Z,1.70
2022-09-01T08:49:46.182Z,1.80
2022-09-01T08:52:23.218Z,2.00
2022-09-01T08:54:52.664Z,1.90
2022-09-01T08:57:39.562Z,2.17
2022-09-01T09:00:13.686Z,1.67
2022-09-01T09:02:41.130Z,1.70
2022-09-01T09:05:18.425Z,1.92
2022-09-01T09:07:53.282Z,1.90
2022-09-01T09:10:41.457Z,1.80
2022-09-01T09:13:13.389Z,1.58
2022-09-01T09:15:49.837Z,4.85
2022-09-01T09:18:39.649Z,3.30
2022-09-01T09:21:16.186Z,2.35
2022-09-01T09:23:46.509Z,12.10
2022-09-01T09:26:16.613Z,3.78
2022-09-01T09:28:44.045Z,5.75
2022-09-01T09:31:28.482Z,3.45
2022-09-01T09:33:56.283Z,3.28
2022-09-01T09:36:30.500Z,6.78
2022-09-01T09:39:09.404Z,3.00
2022-09-01T09:41:37.309Z,3.63
2022-09-01T09:44:23.250Z,7.80
2022-09-01T09:46:50.556Z,10.52
2022-09-01T09:49:21.666Z,8.00
2022-09-01T09:52:03.845Z,4.13
2022-09-01T09:54:32.477Z,7.97
2022-09-01T09:57:14.582Z,10.68
2022-09-01T09:59:59.114Z,17.90
2022-09-01T10:02:32.622Z,4.50
2022-09-01T10:05:02.358Z,4.90
2022-09-01T10:07:29.556Z,7.85
2022-09-01T10:09:58.113Z,5.47
2022-09-01T10:12:25.662Z,7.13
2022-09-01T10:14:55.087Z,18.80
2022-09-01T10:17:35.924Z,8.90
2022-09-01T10:20:07.718Z,4.82
2022-09-01T10:22:39.598Z,11.00
2022-09-01T10:25:10.402Z,1.77
2022-09-01T10:27:40.922Z,1.85
2022-09-01T10:30:19.211Z,1.50
2022-09-01T10:32:55.389Z,1.55
2022-09-01T10:35:30.784Z,1.90
2022-09-01T10:37:59.627Z,1.52
2022-09-01T10:40:31.717Z,1.85
2022-09-01T10:43:17.821Z,1.50
2022-09-01T10:45:45.001Z,1.50
2022-09-01T10:48:32.153Z,1.55
2022-09-01T10:51:18.812Z,1.50
2022-09-01T10:53:49.837Z,1.88
2022-09-01T10:56:43.625Z,1.63
2022-09-01T10:59:34.465Z,1.50
2022-09-01T11:02:26.986Z,1.73
2022-09-01T11:04:55.081Z,1.58
2022-09-01T11:07:29.679Z,1.42
2022-09-01T11:10:33.101Z,1.50
2022-09-01T11:13:27.105Z,1.60
2022-09-01T11:15:54.391Z,1.52
2022-09-01T11:18:30.759Z,1.65
2022-09-01T11:21:17.131Z,1.60
2022-09-01T11:23:46.192Z,1.67
2022-09-01T11:26:35.531Z,1.90
2022-09-01T11:29:02.773Z,1.75
2022-09-01T11:31:39.215Z,1.77
2022-09-01T11:34:13.691Z,1.80
2022-09-01T11:36:48.168Z,1.83
2022-09-01T11:39:19.012Z,1.85
2022-09-01T11:41:54.499Z,1.70
2022-09-01T11:44:34.810Z,1.70
2022-09-01T11:47:22.274Z,1.85
2022-09-01T11:50:00.224Z,1.73
2022-09-01T11:52:30.034Z,1.70
2022-09-01T11:54:57.648Z,1.50
2022-09-01T11:57:29.637Z,1.88
2022-09-01T11:59:57.576Z,1.70
2022-09-01T12:02:26.691Z,1.90
2022-09-01T12:04:55.432Z,2.40
2022-09-01T12:07:43.654Z,1.67
2022-09-01T12:10:20.052Z,1.67
2022-09-01T12:12:47.515Z,1.58
2022-09-01T12:15:24.792Z,1.80
2022-09-01T12:17:53.082Z,1.67
2022-09-01T12:20:20.393Z,1.67
2022-09-01T12:22:47.623Z,1.60
2022-09-01T12:25:26.083Z,1.35
2022-09-01T12:27:54.043Z,1.60
2022-09-01T12:30:21.753Z,1.50
2022-09-01T12:32:49.070Z,1.80
2022-09-01T12:35:24.024Z,1.60
2022-09-01T12:37:52.761Z,1.80
2022-09-01T12:40:35.897Z,1.67
2022-09-01T12:43:03.080Z,1.75
2022-09-01T12:45:40.213Z,1.60
2022-09-01T12:48:07.680Z,1.67
2022-09-01T12:50:36.065Z,1.70
2022-09-01T12:53:05.837Z,1.70
2022-09-01T12:55:50.298Z,1.85
2022-09-01T12:58:21.873Z,2.03
2022-09-01T13:01:17.111Z,1.85
2022-09-01T13:04:04.318Z,1.65
2022-09-01T13:06:31.495Z,1.90
2022-09-01T13:08:58.601Z,1.40
2022-09-01T13:11:26.064Z,1.90
2022-09-01T13:13:53.209Z,1.70
2022-09-01T13:16:20.341Z,1.70
2022-09-01T13:21:35.583Z,1.88
2022-09-01T13:24:04.988Z,1.70
2022-09-01T13:26:32.344Z,1.88
2022-09-01T13:29:00.091Z,1.95
2022-09-01T13:31:30.204Z,2.00
2022-09-01T13:34:21.671Z,1.85
2022-09-01T13:36:49.227Z,1.63
2022-09-01T13:39:18.955Z,1.60
2022-09-01T13:41:47.216Z,1.50
2022-09-01T13:44:14.625Z,1.73
2022-09-01T13:50:05.322Z,1.90
2022-09-01T13:52:16.193Z,1.55
2022-09-01T13:54:47.640Z,1.60
2022-09-01T13:57:16.452Z,1.92
2022-09-01T13:59:43.940Z,1.88
2022-09-01T14:02:11.158Z,1.60
2022-09-01T14:04:38.753Z,1.75
2022-09-01T14:07:06.254Z,1.67
2022-09-01T14:09:33.401Z,1.50
2022-09-01T14:12:00.552Z,1.58
2022-09-01T14:15:10.650Z,1.60
2022-09-01T14:17:15.610Z,1.90
2022-09-01T14:19:42.758Z,1.83
2022-09-01T14:22:09.923Z,1.80
2022-09-01T14:24:40.266Z,1.85
2022-09-01T14:27:08.089Z,1.90
2022-09-01T14:29:36.437Z,1.75
2022-09-01T14:32:04.100Z,1.60
2022-09-01T14:34:31.226Z,1.70
2022-09-01T14:36:59.278Z,2.03
2022-09-01T14:39:26.449Z,1.70
2022-09-01T14:41:53.589Z,1.75
2022-09-01T14:44:20.782Z,2.00
2022-09-01T14:46:49.080Z,1.63
2022-09-01T14:49:21.676Z,2.08
2022-09-01T14:54:37.910Z,1.70
2022-09-01T14:59:53.250Z,2.00
2022-09-01T15:02:20.402Z,1.88
2022-09-01T15:04:47.560Z,1.98
2022-09-01T15:07:14.906Z,1.75
2022-09-01T15:09:42.553Z,1.85
2022-09-01T15:12:09.868Z,1.80
2022-09-01T15:14:37.932Z,1.65
2022-09-01T15:17:06.803Z,1.75
2022-09-01T15:19:33.928Z,1.70
2022-09-01T15:22:01.048Z,1.70
2022-09-01T15:24:28.252Z,1.85
2022-09-01T15:26:55.459Z,1.77
2022-09-01T15:29:22.635Z,1.70
2022-09-01T15:31:49.923Z,2.20
2022-09-01T15:34:18.903Z,1.80
2022-09-01T15:36:46.054Z,1.80
2022-09-01T15:39:13.206Z,1.90
2022-09-01T15:41:40.426Z,1.90
2022-09-01T15:44:08.090Z,1.90
2022-09-01T15:46:36.418Z,2.05
2022-09-01T15:49:06.254Z,1.65
2022-09-01T15:51:41.032Z,1.88
2022-09-01T15:54:09.661Z,2.05
2022-09-01T15:56:36.834Z,1.70
2022-09-01T15:59:04.682Z,1.80
2022-09-01T16:01:33.619Z,1.90
2022-09-01T16:04:01.467Z,1.98
2022-09-01T16:06:28.724Z,2.00
2022-09-01T16:08:56.238Z,1.80
2022-09-01T16:11:24.873Z,1.60
2022-09-01T16:13:53.581Z,1.80
2022-09-01T16:16:38.646Z,1.92
2022-09-01T16:19:27.229Z,1.50
2022-09-01T16:22:17.114Z,1.63
2022-09-01T16:24:45.983Z,1.48
2022-09-01T16:27:15.277Z,1.80
2022-09-01T16:29:48.831Z,1.95
2022-09-01T16:32:16.661Z,2.00
2022-09-01T16:34:47.049Z,1.75
2022-09-01T16:37:17.368Z,1.88
2022-09-01T16:39:50.302Z,1.85
2022-09-01T16:42:27.953Z,1.83
2022-09-01T16:45:02.617Z,1.95
2022-09-01T16:47:48.973Z,1.60
2022-09-01T16:50:34.498Z,2.00
2022-09-01T16:53:02.744Z,1.60
2022-09-01T16:55:36.598Z,1.83
2022-09-01T16:58:25.224Z,1.90
2022-09-01T17:01:03.426Z,1.70
2022-09-01T17:03:42.755Z,1.90
2022-09-01T17:06:15.107Z,1.70
2022-09-01T17:08:52.693Z,1.48
2022-09-01T17:11:25.809Z,1.70
2022-09-01T17:13:53.106Z,1.75
2022-09-01T17:16:26.904Z,1.63
2022-09-01T17:18:56.524Z,1.80
2022-09-01T17:21:27.132Z,1.85
2022-09-01T17:23:56.895Z,1.85
2022-09-01T17:26:32.852Z,1.90
2022-09-01T17:29:07.346Z,1.88
2022-09-01T17:31:58.020Z,1.80
2022-09-01T17:34:46.863Z,1.73
2022-09-01T17:37:23.154Z,1.77
2022-09-01T17:40:15.797Z,1.58
2022-09-01T17:42:58.010Z,1.67
2022-09-01T17:45:28.997Z,1.77
2022-09-01T17:48:01.385Z,1.63
2022-09-01T17:50:28.526Z,1.73
2022-09-01T17:53:14.691Z,1.90
2022-09-01T17:55:44.142Z,1.73
2022-09-01T17:58:23.222Z,1.60
2022-09-01T18:01:07.695Z,1.67
2022-09-01T18:03:35.623Z,1.45
2022-09-01T18:06:23.014Z,1.92
2022-09-01T18:08:53.915Z,1.90
2022-09-01T18:11:34.650Z,1.60
2022-09-01T18:14:08.018Z,1.48
2022-09-01T18:17:04.734Z,2.05
2022-09-01T18:19:39.434Z,1.92
2022-09-01T18:22:12.976Z,1.70
2022-09-01T18:24:58.813Z,1.70
2022-09-01T18:27:30.054Z,1.70
2022-09-01T18:30:01.365Z,1.80
2022-09-01T18:32:42.384Z,1.73
2022-09-01T18:35:24.917Z,1.80
2022-09-01T18:38:07.543Z,1.63
2022-09-01T18:40:56.268Z,1.70
2022-09-01T18:43:26.474Z,1.63
2022-09-01T18:46:02.595Z,1.73
2022-09-01T18:48:48.530Z,2.10
2022-09-01T18:51:33.785Z,1.50
2022-09-01T18:54:07.086Z,1.60
2022-09-01T18:56:47.499Z,1.70
2022-09-01T18:59:36.923Z,1.88
2022-09-01T19:02:24.783Z,2.00
2022-09-01T19:04:57.458Z,2.03
2022-09-01T19:07:30.452Z,1.80
2022-09-01T19:10:23.797Z,2.00
2022-09-01T19:13:07.777Z,1.90
2022-09-01T19:15:38.132Z,2.13
2022-09-01T19:18:13.914Z,1.80
2022-09-01T19:20:55.846Z,1.90
2022-09-01T19:23:35.899Z,2.00
2022-09-01T19:26:05.611Z,1.90
2022-09-01T19:28:32.787Z,1.93
2022-09-01T19:31:18.507Z,2.10
2022-09-01T19:33:51.548Z,2.03
2022-09-01T19:36:20.802Z,2.10
2022-09-01T19:38:48.018Z,1.73
2022-09-01T19:41:18.878Z,1.57
2022-09-01T19:43:46.102Z,2.13
2022-09-01T19:46:18.290Z,2.00
2022-09-01T19:48:58.165Z,2.60
2022-09-01T19:51:28.968Z,2.30
2022-09-01T19:54:01.507Z,2.13
2022-09-01T19:56:49.435Z,1.97
2022-09-01T19:59:27.199Z,2.20
2022-09-01T20:02:08.624Z,2.13
2022-09-01T20:04:38.877Z,1.87
2022-09-01T20:07:09.147Z,1.93
2022-09-01T20:09:51.933Z,2.10
2022-09-01T20:12:26.807Z,2.00
2022-09-01T20:15:12.878Z,1.90
2022-09-01T20:17:43.511Z,2.30
2022-09-01T20:20:13.747Z,2.00
2022-09-01T20:22:51.317Z,2.20
2022-09-01T20:25:25.762Z,2.47
2022-09-01T20:28:13.308Z,2.17
2022-09-01T20:30:44.223Z,1.83
2022-09-01T20:33:20.479Z,2.10
2022-09-01T20:35:56.893Z,2.33
2022-09-01T20:38:42.810Z,2.00
2022-09-01T20:41:19.428Z,2.00
2022-09-01T20:43:49.235Z,2.90
2022-09-01T20:46:20.218Z,2.33
2022-09-01T20:48:48.034Z,2.20
2022-09-01T20:51:16.191Z,2.00
2022-09-01T20:53:43.295Z,2.00
2022-09-01T20:56:19.390Z,2.00
2022-09-01T21:01:38.090Z,2.13
2022-09-01T21:04:24.536Z,1.83
2022-09-01T21:06:54.429Z,2.00
2022-09-01T21:09:33.738Z,2.00
2022-09-01T21:12:06.675Z,1.80
2022-09-01T21:14:41.612Z,1.90
2022-09-01T21:17:21.755Z,2.23
2022-09-01T21:19:49.822Z,1.90
2022-09-01T21:22:21.900Z,1.93
2022-09-01T21:24:49.725Z,1.93
2022-09-01T21:27:22.575Z,2.00
2022-09-01T21:30:22.224Z,1.83
2022-09-01T21:32:49.413Z,2.13
2022-09-01T21:35:18.415Z,2.13
2022-09-01T21:37:45.751Z,1.93
2022-09-01T21:40:13.173Z,1.83
2022-09-01T21:42:51.842Z,2.00
2022-09-01T21:45:19.591Z,1.90
2022-09-01T21:47:47.161Z,2.20
2022-09-01T21:50:15.441Z,2.00
2022-09-01T21:52:42.912Z,2.17
2022-09-01T21:55:10.714Z,1.90
2022-09-01T21:57:37.936Z,2.10
2022-09-01T22:00:09.749Z,1.80
2022-09-01T22:02:37.473Z,1.83
2022-09-01T22:05:08.446Z,1.73
2022-09-01T22:07:38.842Z,2.07
2022-09-01T22:10:06.525Z,2.00
2022-09-01T22:12:35.541Z,2.00
2022-09-01T22:15:03.422Z,2.10
2022-09-01T22:17:31.557Z,1.97
2022-09-01T22:19:59.042Z,1.87
2022-09-01T22:22:26.185Z,2.00
2022-09-01T22:24:53.308Z,1.70
2022-09-01T22:27:20.419Z,2.10
2022-09-01T22:29:47.555Z,2.20
2022-09-01T22:32:14.698Z,1.80
2022-09-01T22:34:43.610Z,1.93
2022-09-01T22:37:11.012Z,1.80
2022-09-01T22:39:38.180Z,1.70
2022-09-01T22:42:05.357Z,1.57
2022-09-01T22:44:32.758Z,1.70
2022-09-01T22:46:59.868Z,1.73
2022-09-01T22:49:26.996Z,1.70
2022-09-01T22:51:54.106Z,1.70
2022-09-01T22:54:21.335Z,1.83
2022-09-01T22:56:49.861Z,1.73
2022-09-01T22:59:17.008Z,1.60
2022-09-01T23:01:46.170Z,1.90
2022-09-01T23:04:14.074Z,1.93
2022-09-01T23:06:43.713Z,1.87
2022-09-01T23:09:11.485Z,1.53
2022-09-01T23:11:38.648Z,1.80
2022-09-01T23:14:05.862Z,1.73
2022-09-01T23:16:33.448Z,1.50
2022-09-01T23:19:01.102Z,1.80
2022-09-01T23:21:29.475Z,1.80
2022-09-01T23:23:58.678Z,1.80
2022-09-01T23:26:26.377Z,1.70
2022-09-01T23:28:53.508Z,2.13
2022-09-01T23:31:22.411Z,2.00
2022-09-01T23:33:49.599Z,2.10
2022-09-01T23:36:18.979Z,1.70
2022-09-01T23:38:47.066Z,2.00
2022-09-01T23:41:16.638Z,2.03
2022-09-01T23:43:44.158Z,2.10
2022-09-01T23:46:17.848Z,1.90
2022-09-01T23:48:45.001Z,1.80
2022-09-01T23:51:13.127Z,1.97
2022-09-01T23:53:40.682Z,2.00
2022-09-01T23:56:12.684Z,1.90
2022-09-01T23:58:40.159Z,2.30
